createdAt,value
2018-02-13T00:00:54.491Z,101269.33
2018-02-13T00:01:58.690Z,101269.73
2018-02-13T00:03:03.323Z,101273.16
2018-02-13T00:04:08.596Z,101276.05
2018-02-13T00:05:14.079Z,101275.62
2018-02-13T00:06:18.299Z,101272.26
2018-02-13T00:07:22.559Z,101276.00
2018-02-13T00:08:26.732Z,101273.06
2018-02-13T00:09:31.290Z,101271.42
2018-02-13T00:10:36.162Z,101276.00
2018-02-13T00:11:41.007Z,101271.02
2018-02-13T00:12:45.296Z,101274.36
2018-02-13T00:13:49.491Z,101269.88
2018-02-13T00:14:54.455Z,101271.48
2018-02-13T00:15:58.668Z,101262.25
2018-02-13T00:17:03.416Z,101264.31
2018-02-13T00:18:08.474Z,101270.22
2018-02-13T00:19:13.602Z,101265.17
2018-02-13T00:20:18.574Z,101262.98
2018-02-13T00:21:22.770Z,101266.77
2018-02-13T00:23:58.096Z,101266.75
2018-02-13T00:25:04.547Z,101267.20
2018-02-13T00:26:09.428Z,101272.66
2018-02-13T00:27:14.119Z,101267.14
2018-02-13T00:28:19.103Z,101267.58
2018-02-13T00:29:23.350Z,101266.75
2018-02-13T00:30:28.331Z,101265.88
2018-02-13T00:31:33.334Z,101268.05
2018-02-13T00:32:37.761Z,101272.62
2018-02-13T00:33:42.009Z,101268.41
2018-02-13T00:34:47.415Z,101268.76
2018-02-13T00:35:51.584Z,101267.50
2018-02-13T00:36:56.506Z,101267.48
2018-02-13T00:38:01.841Z,101267.05
2018-02-13T00:39:06.372Z,101273.80
2018-02-13T00:40:11.602Z,101272.05
2018-02-13T00:41:16.124Z,101268.30
2018-02-13T00:42:21.071Z,101265.72
2018-02-13T00:43:25.312Z,101272.86
2018-02-13T00:44:29.509Z,101270.86
2018-02-13T00:45:35.598Z,101267.45
2018-02-13T00:46:39.854Z,101265.30
2018-02-13T00:47:44.095Z,101265.73
2018-02-13T00:48:48.305Z,101263.16
2018-02-13T00:49:52.503Z,101272.80
2018-02-13T00:50:56.733Z,101270.72
2018-02-13T00:52:01.795Z,101263.55
2018-02-13T00:53:06.971Z,101268.24
2018-02-13T00:54:11.279Z,101267.80
2018-02-13T00:55:15.511Z,101271.60
2018-02-13T00:56:19.758Z,101270.80
2018-02-13T00:57:23.927Z,101270.34
2018-02-13T00:58:28.100Z,101273.22
2018-02-13T00:59:33.338Z,101273.14
2018-02-13T01:00:37.924Z,101267.59
2018-02-13T01:01:42.564Z,101271.84
2018-02-13T01:02:47.541Z,101271.06
2018-02-13T01:03:51.727Z,101269.70
2018-02-13T01:04:55.923Z,101268.42
2018-02-13T01:06:00.887Z,101262.58
2018-02-13T01:07:05.840Z,101262.91
2018-02-13T01:08:10.361Z,101263.75
2018-02-13T01:09:14.609Z,101264.16
2018-02-13T01:10:19.564Z,101257.78
2018-02-13T01:11:23.750Z,101267.02
2018-02-13T01:12:28.734Z,101265.31
2018-02-13T01:13:33.276Z,101263.21
2018-02-13T01:14:38.236Z,101265.63
2018-02-13T01:15:42.722Z,101261.41
2018-02-13T01:16:46.924Z,101261.05
2018-02-13T01:17:51.469Z,101258.13
2018-02-13T01:18:56.462Z,101260.63
2018-02-13T01:20:01.027Z,101258.59
2018-02-13T01:21:06.417Z,101257.75
2018-02-13T01:22:11.496Z,101260.25
2018-02-13T01:23:15.791Z,101256.38
2018-02-13T01:24:19.991Z,101253.95
2018-02-13T01:25:24.175Z,101260.23
2018-02-13T01:26:28.457Z,101251.83
2018-02-13T01:27:33.315Z,101252.70
2018-02-13T01:28:37.755Z,101256.41
2018-02-13T01:29:43.128Z,101260.15
2018-02-13T01:30:47.347Z,101254.74
2018-02-13T01:31:51.554Z,101253.93
2018-02-13T01:32:55.730Z,101257.30
2018-02-13T01:34:00.772Z,101256.41
2018-02-13T01:35:06.852Z,101259.43
2018-02-13T01:36:11.187Z,101263.19
2018-02-13T01:37:15.399Z,101256.77
2018-02-13T01:38:19.576Z,101251.74
2018-02-13T01:39:23.779Z,101257.64
2018-02-13T01:40:28.003Z,101260.57
2018-02-13T01:41:32.298Z,101266.41
2018-02-13T01:42:37.020Z,101267.19
2018-02-13T01:43:42.051Z,101268.41
2018-02-13T01:44:46.280Z,101267.20
2018-02-13T01:45:50.492Z,101259.66
2018-02-13T01:46:54.752Z,101263.42
2018-02-13T01:47:59.742Z,101268.05
2018-02-13T01:49:04.250Z,101267.63
2018-02-13T01:50:29.919Z,101266.01
2018-02-13T01:51:34.357Z,101267.65
2018-02-13T01:52:38.717Z,101268.92
2018-02-13T01:53:42.973Z,101265.20
2018-02-13T01:54:47.929Z,101262.25
2018-02-13T01:55:52.168Z,101262.20
2018-02-13T01:56:56.394Z,101260.95
2018-02-13T01:58:00.685Z,101258.78
2018-02-13T01:59:05.473Z,101255.05
2018-02-13T02:00:09.803Z,101260.09
2018-02-13T02:01:14.133Z,101263.87
2018-02-13T02:02:21.114Z,101255.05
2018-02-13T02:03:25.316Z,101256.72
2018-02-13T02:04:29.588Z,101251.27
2018-02-13T02:05:34.028Z,101259.69
2018-02-13T02:06:38.327Z,101250.84
2018-02-13T02:07:42.699Z,101252.50
2018-02-13T02:08:46.943Z,101256.72
2018-02-13T02:09:51.895Z,101251.66
2018-02-13T02:10:56.099Z,101253.70
2018-02-13T02:12:00.299Z,101259.61
2018-02-13T02:13:07.327Z,101253.66
2018-02-13T02:14:12.119Z,101254.14
2018-02-13T02:15:16.320Z,101256.66
2018-02-13T02:16:21.287Z,101254.14
2018-02-13T02:17:25.472Z,101254.96
2018-02-13T02:18:29.675Z,101255.28
2018-02-13T02:19:34.683Z,101246.89
2018-02-13T02:20:40.371Z,101257.04
2018-02-13T02:21:44.612Z,101250.64
2018-02-13T02:22:48.786Z,101253.97
2018-02-13T02:23:53.003Z,101253.05
2018-02-13T02:24:57.261Z,101258.87
2018-02-13T02:26:01.863Z,101252.48
2018-02-13T02:27:06.678Z,101247.95
2018-02-13T02:28:11.247Z,101255.42
2018-02-13T02:29:15.483Z,101244.38
2018-02-13T02:30:20.006Z,101248.59
2018-02-13T02:31:24.192Z,101247.77
2018-02-13T02:32:29.158Z,101243.12
2018-02-13T02:33:33.644Z,101240.55
2018-02-13T02:34:38.067Z,101244.36
2018-02-13T02:35:42.599Z,101244.67
2018-02-13T02:36:46.930Z,101244.65
2018-02-13T02:37:51.168Z,101241.69
2018-02-13T02:38:55.376Z,101244.25
2018-02-13T02:39:59.575Z,101240.84
2018-02-13T02:41:04.339Z,101243.78
2018-02-13T02:42:08.704Z,101233.22
2018-02-13T02:43:13.075Z,101239.54
2018-02-13T02:44:17.304Z,101236.56
2018-02-13T02:45:21.508Z,101240.34
2018-02-13T02:46:25.714Z,101233.62
2018-02-13T02:47:29.940Z,101240.72
2018-02-13T02:48:37.509Z,101241.58
2018-02-13T02:49:42.029Z,101242.81
2018-02-13T02:50:47.885Z,101239.38
2018-02-13T02:51:52.080Z,101233.95
2018-02-13T02:52:56.295Z,101229.36
2018-02-13T02:54:00.570Z,101233.45
2018-02-13T02:55:07.385Z,101230.97
2018-02-13T02:56:12.319Z,101228.89
2018-02-13T02:57:16.558Z,101226.75
2018-02-13T02:58:21.418Z,101232.30
2018-02-13T02:59:25.656Z,101232.73
2018-02-13T03:00:29.878Z,101231.03
2018-02-13T03:01:34.413Z,101227.19
2018-02-13T03:02:39.004Z,101228.91
2018-02-13T03:03:44.219Z,101228.60
2018-02-13T03:04:49.293Z,101226.47
2018-02-13T03:05:54.015Z,101224.30
2018-02-13T03:06:58.224Z,101222.48
2018-02-13T03:08:02.739Z,101222.42
2018-02-13T03:09:07.581Z,101223.17
2018-02-13T03:10:13.040Z,101223.30
2018-02-13T03:11:17.301Z,101219.87
2018-02-13T03:12:21.479Z,101218.56
2018-02-13T03:13:25.687Z,101217.63
2018-02-13T03:14:29.914Z,101218.94
2018-02-13T03:15:35.942Z,101216.45
2018-02-13T03:16:41.535Z,101214.23
2018-02-13T03:17:45.858Z,101214.66
2018-02-13T03:18:50.162Z,101211.75
2018-02-13T03:19:54.393Z,101215.05
2018-02-13T03:20:58.598Z,101212.44
2018-02-13T03:22:04.264Z,101217.12
2018-02-13T03:23:09.815Z,101220.04
2018-02-13T03:24:14.762Z,101220.11
2018-02-13T03:25:19.719Z,101216.28
2018-02-13T03:26:23.900Z,101214.12
2018-02-13T03:27:28.079Z,101213.69
2018-02-13T03:28:34.368Z,101215.31
2018-02-13T03:29:41.460Z,101212.33
2018-02-13T03:30:45.716Z,101210.20
2018-02-13T03:31:49.932Z,101210.56
2018-02-13T03:32:54.123Z,101214.36
2018-02-13T03:33:58.664Z,101215.81
2018-02-13T03:35:04.124Z,101209.06
2018-02-13T03:36:09.252Z,101206.47
2018-02-13T03:37:13.807Z,101210.26
2018-02-13T03:38:18.273Z,101209.02
2018-02-13T03:39:22.501Z,101208.98
2018-02-13T03:40:26.743Z,101206.45
2018-02-13T03:41:31.203Z,101204.80
2018-02-13T03:42:37.276Z,101205.59
2018-02-13T03:43:42.406Z,101210.77
2018-02-13T03:44:46.642Z,101203.70
2018-02-13T03:45:50.927Z,101205.70
2018-02-13T03:46:55.118Z,101201.84
2018-02-13T03:47:59.299Z,101201.34
2018-02-13T03:49:04.998Z,101202.67
2018-02-13T03:50:10.404Z,101202.70
2018-02-13T03:51:15.752Z,101196.80
2018-02-13T03:52:19.973Z,101202.25
2018-02-13T03:53:24.253Z,101201.91
2018-02-13T03:54:28.479Z,101198.08
2018-02-13T03:55:34.396Z,101198.92
2018-02-13T03:56:38.882Z,101197.28
2018-02-13T03:57:43.220Z,101198.58
2018-02-13T03:58:47.475Z,101194.30
2018-02-13T03:59:51.686Z,101195.17
2018-02-13T04:00:55.880Z,101190.08
2018-02-13T04:02:00.099Z,101194.19
2018-02-13T04:03:04.714Z,101187.45
2018-02-13T04:04:09.112Z,101191.59
2018-02-13T04:05:13.581Z,101183.58
2018-02-13T04:06:18.088Z,101177.32
2018-02-13T04:07:22.276Z,101185.05
2018-02-13T04:08:26.474Z,101185.02
2018-02-13T04:09:30.764Z,101179.10
2018-02-13T04:10:35.825Z,101181.53
2018-02-13T04:11:41.231Z,101179.84
2018-02-13T04:12:46.418Z,101176.15
2018-02-13T04:13:50.635Z,101174.80
2018-02-13T04:14:54.819Z,101174.42
2018-02-13T04:15:59.014Z,101169.83
2018-02-13T04:17:03.687Z,101169.83
2018-02-13T04:18:09.090Z,101166.88
2018-02-13T04:19:13.872Z,101168.13
2018-02-13T04:20:18.911Z,101155.61
2018-02-13T04:21:23.200Z,101163.58
2018-02-13T04:22:27.460Z,101163.62
2018-02-13T04:23:32.915Z,101161.83
2018-02-13T04:24:38.049Z,101165.27
2018-02-13T04:25:42.383Z,101157.70
2018-02-13T04:26:46.585Z,101161.08
2018-02-13T04:27:50.870Z,101158.60
2018-02-13T04:28:55.065Z,101159.09
2018-02-13T04:30:00.026Z,101157.41
2018-02-13T04:31:04.653Z,101156.55
2018-02-13T04:32:09.967Z,101166.25
2018-02-13T04:33:14.616Z,101163.28
2018-02-13T04:34:18.795Z,101156.53
2018-02-13T04:35:23.767Z,101161.56
2018-02-13T04:36:27.942Z,101163.27
2018-02-13T04:37:33.023Z,101168.67
2018-02-13T04:38:37.999Z,101171.59
2018-02-13T04:39:42.416Z,101174.20
2018-02-13T04:40:46.786Z,101159.95
2018-02-13T04:41:51.756Z,101164.17
2018-02-13T04:42:55.959Z,101169.19
2018-02-13T04:44:00.238Z,101163.33
2018-02-13T04:45:05.825Z,101165.47
2018-02-13T04:46:10.209Z,101163.38
2018-02-13T04:47:15.438Z,101168.43
2018-02-13T04:48:19.661Z,101168.03
2018-02-13T04:49:24.645Z,101169.63
2018-02-13T04:50:28.838Z,101166.69
2018-02-13T04:51:33.936Z,101169.63
2018-02-13T04:52:39.000Z,101167.97
2018-02-13T04:53:43.245Z,101166.66
2018-02-13T04:54:47.486Z,101170.01
2018-02-13T04:55:53.259Z,101169.16
2018-02-13T04:56:57.488Z,101167.09
2018-02-13T04:58:01.994Z,101167.02
2018-02-13T04:59:06.274Z,101163.73
2018-02-13T05:00:11.294Z,101161.59
2018-02-13T05:01:15.477Z,101163.69
2018-02-13T05:02:19.707Z,101162.02
2018-02-13T05:03:23.924Z,101162.87
2018-02-13T05:04:28.139Z,101158.20
2018-02-13T05:05:33.015Z,101156.92
2018-02-13T05:06:38.303Z,101156.59
2018-02-13T05:07:42.557Z,101157.38
2018-02-13T05:08:46.794Z,101152.37
2018-02-13T05:09:51.487Z,101156.17
2018-02-13T05:10:55.714Z,101154.02
2018-02-13T05:11:59.911Z,101160.75
2018-02-13T05:13:04.394Z,101154.80
2018-02-13T05:14:09.401Z,101153.94
2018-02-13T05:15:14.510Z,101154.83
2018-02-13T05:16:18.683Z,101157.39
2018-02-13T05:17:22.957Z,101154.78
2018-02-13T05:18:27.247Z,101154.84
2018-02-13T05:19:32.136Z,101145.58
2018-02-13T05:20:39.360Z,101147.27
2018-02-13T05:21:44.248Z,101147.30
2018-02-13T05:22:48.466Z,101146.50
2018-02-13T05:23:52.850Z,101145.23
2018-02-13T05:24:57.833Z,101147.32
2018-02-13T05:26:02.746Z,101143.96
2018-02-13T05:27:08.134Z,101145.16
2018-02-13T05:28:14.225Z,101145.14
2018-02-13T05:29:18.467Z,101146.02
2018-02-13T05:30:22.688Z,101149.00
2018-02-13T05:31:26.945Z,101147.80
2018-02-13T05:32:32.015Z,101153.25
2018-02-13T05:33:38.362Z,101152.90
2018-02-13T05:34:44.175Z,101150.30
2018-02-13T05:35:49.150Z,101149.10
2018-02-13T05:36:53.378Z,101148.63
2018-02-13T05:37:57.592Z,101151.98
2018-02-13T05:39:01.997Z,101151.16
2018-02-13T05:40:07.799Z,101149.10
2018-02-13T05:41:12.339Z,101149.02
2018-02-13T05:42:16.996Z,101151.18
2018-02-13T05:43:21.212Z,101150.38
2018-02-13T05:44:25.409Z,101147.86
2018-02-13T05:45:29.640Z,101140.28
2018-02-13T05:46:35.076Z,101144.91
2018-02-13T05:47:39.959Z,101141.55
2018-02-13T05:48:44.558Z,101144.92
2018-02-13T05:49:48.734Z,101144.50
2018-02-13T05:50:52.907Z,101144.53
2018-02-13T05:51:57.125Z,101140.33
2018-02-13T05:53:01.498Z,101141.52
2018-02-13T05:54:05.924Z,101140.70
2018-02-13T05:55:10.224Z,101140.67
2018-02-13T05:56:15.175Z,101137.41
2018-02-13T05:57:19.364Z,101142.83
2018-02-13T05:58:24.398Z,101142.03
2018-02-13T05:59:28.719Z,101144.10
2018-02-13T06:00:33.482Z,101144.83
2018-02-13T06:01:37.711Z,101140.14
2018-02-13T06:02:43.433Z,101143.94
2018-02-13T06:03:47.703Z,101143.88
2018-02-13T06:04:52.652Z,101142.59
2018-02-13T06:05:56.868Z,101148.45
2018-02-13T06:07:01.155Z,101136.72
2018-02-13T06:08:05.491Z,101142.23
2018-02-13T06:09:09.792Z,101146.45
2018-02-13T06:10:14.141Z,101144.02
2018-02-13T06:11:18.322Z,101138.44
2018-02-13T06:12:22.495Z,101141.72
2018-02-13T06:13:27.528Z,101145.55
2018-02-13T06:14:31.707Z,101143.98
2018-02-13T06:15:36.050Z,101144.36
2018-02-13T06:16:41.085Z,101139.23
2018-02-13T06:17:45.318Z,101144.80
2018-02-13T06:18:49.552Z,101142.23
2018-02-13T06:19:53.772Z,101142.57
2018-02-13T06:20:57.972Z,101139.20
2018-02-13T06:22:02.402Z,101149.31
2018-02-13T06:23:06.855Z,101144.65
2018-02-13T06:24:11.497Z,101140.07
2018-02-13T06:25:15.747Z,101142.59
2018-02-13T06:26:19.983Z,101139.76
2018-02-13T06:27:24.320Z,101144.75
2018-02-13T06:28:29.271Z,101141.31
2018-02-13T06:29:33.954Z,101145.16
2018-02-13T06:30:39.203Z,101142.20
2018-02-13T06:31:44.278Z,101138.33
2018-02-13T06:32:48.464Z,101140.41
2018-02-13T06:33:53.772Z,101142.94
2018-02-13T06:34:58.806Z,101141.72
2018-02-13T06:37:08.783Z,101144.19
2018-02-13T06:38:13.078Z,101142.55
2018-02-13T06:39:17.279Z,101143.02
2018-02-13T06:40:21.555Z,101139.59
2018-02-13T06:41:25.749Z,101136.21
2018-02-13T06:42:29.961Z,101136.23
2018-02-13T06:43:35.582Z,101134.45
2018-02-13T06:44:39.888Z,101136.88
2018-02-13T06:45:44.197Z,101135.56
2018-02-13T06:46:49.177Z,101139.46
2018-02-13T06:47:53.359Z,101135.25
2018-02-13T06:48:57.553Z,101134.45
2018-02-13T06:50:03.464Z,101137.89
2018-02-13T06:51:08.518Z,101136.73
2018-02-13T06:52:12.952Z,101134.03
2018-02-13T06:53:17.219Z,101135.66
2018-02-13T06:54:21.407Z,101135.69
2018-02-13T06:55:25.624Z,101132.77
2018-02-13T06:56:29.868Z,101134.45
2018-02-13T06:57:36.814Z,101138.22
2018-02-13T06:58:41.077Z,101140.76
2018-02-13T06:59:45.427Z,101144.02
2018-02-13T07:00:49.648Z,101144.44
2018-02-13T07:01:53.879Z,101138.98
2018-02-13T07:02:58.220Z,101143.64
2018-02-13T07:04:03.482Z,101140.33
2018-02-13T07:05:09.305Z,101144.97
2018-02-13T07:06:13.800Z,101145.78
2018-02-13T07:07:18.828Z,101143.27
2018-02-13T07:08:23.014Z,101143.69
2018-02-13T07:09:27.219Z,101152.44
2018-02-13T07:10:31.830Z,101147.86
2018-02-13T07:11:37.453Z,101150.83
2018-02-13T07:12:41.968Z,101147.55
2018-02-13T07:13:46.176Z,101150.51
2018-02-13T07:14:51.181Z,101150.48
2018-02-13T07:15:56.186Z,101147.12
2018-02-13T07:17:00.530Z,101151.41
2018-02-13T07:18:06.363Z,101148.51
2018-02-13T07:19:12.076Z,101149.73
2018-02-13T07:20:16.838Z,101148.89
2018-02-13T07:21:21.018Z,101144.23
2018-02-13T07:22:25.255Z,101148.47
2018-02-13T07:23:29.520Z,101160.66
2018-02-13T07:24:34.990Z,101154.92
2018-02-13T07:25:40.195Z,101154.14
2018-02-13T07:26:44.876Z,101154.16
2018-02-13T07:27:49.879Z,101160.92
2018-02-13T07:28:54.165Z,101155.56
2018-02-13T07:29:58.352Z,101156.34
2018-02-13T07:31:03.104Z,101158.41
2018-02-13T07:32:09.178Z,101161.76
2018-02-13T07:33:13.740Z,101156.83
2018-02-13T07:34:17.997Z,101157.70
2018-02-13T07:35:22.253Z,101154.80
2018-02-13T07:36:26.466Z,101161.88
2018-02-13T07:37:31.575Z,101157.79
2018-02-13T07:38:37.275Z,101156.57
2018-02-13T07:39:41.786Z,101151.89
2018-02-13T07:40:46.131Z,101158.57
2018-02-13T07:41:50.488Z,101160.33
2018-02-13T07:42:55.476Z,101160.03
2018-02-13T07:43:59.693Z,101165.39
2018-02-13T07:45:06.164Z,101161.27
2018-02-13T07:46:11.265Z,101159.61
2018-02-13T07:47:17.160Z,101156.67
2018-02-13T07:48:21.348Z,101154.22
2018-02-13T07:49:25.583Z,101157.17
2018-02-13T07:50:29.828Z,101158.06
2018-02-13T07:51:35.883Z,101164.02
2018-02-13T07:52:40.886Z,101158.62
2018-02-13T07:53:45.165Z,101155.23
2018-02-13T07:54:49.392Z,101163.70
2018-02-13T07:55:53.595Z,101162.48
2018-02-13T07:56:57.766Z,101162.52
2018-02-13T07:58:02.552Z,101165.09
2018-02-13T07:59:08.588Z,101162.64
2018-02-13T08:00:13.473Z,101161.05
2018-02-13T08:01:17.703Z,101155.23
2018-02-13T08:02:21.887Z,101159.11
2018-02-13T08:03:26.085Z,101156.63
2018-02-13T08:04:30.436Z,101156.70
2018-02-13T08:05:36.360Z,101154.69
2018-02-13T08:06:40.678Z,101156.04
2018-02-13T08:07:45.068Z,101158.55
2018-02-13T08:08:50.024Z,101163.28
2018-02-13T08:09:54.194Z,101154.14
2018-02-13T08:10:58.410Z,101153.25
2018-02-13T08:12:04.733Z,101150.30
2018-02-13T08:13:09.105Z,101151.61
2018-02-13T08:14:14.239Z,101153.34
2018-02-13T08:15:18.889Z,101149.63
2018-02-13T08:16:23.077Z,101156.85
2018-02-13T08:17:27.280Z,101155.63
2018-02-13T08:18:31.864Z,101149.34
2018-02-13T08:19:36.597Z,101147.72
2018-02-13T08:20:42.208Z,101150.77
2018-02-13T08:21:46.932Z,101146.61
2018-02-13T08:22:51.130Z,101150.52
2018-02-13T08:23:55.299Z,101143.05
2018-02-13T08:25:00.267Z,101142.20
2018-02-13T08:26:05.698Z,101144.35
2018-02-13T08:27:11.950Z,101143.62
2018-02-13T08:28:16.252Z,101144.50
2018-02-13T08:29:20.460Z,101140.34
2018-02-13T08:30:24.632Z,101137.78
2018-02-13T08:31:28.874Z,101142.38
2018-02-13T08:32:35.486Z,101135.76
2018-02-13T08:33:39.918Z,101142.60
2018-02-13T08:34:44.349Z,101142.62
2018-02-13T08:35:48.552Z,101135.89
2018-02-13T08:36:52.732Z,101132.89
2018-02-13T08:37:56.947Z,101136.66
2018-02-13T08:39:01.664Z,101127.14
2018-02-13T08:40:08.120Z,101135.98
2018-02-13T08:41:12.432Z,101136.41
2018-02-13T08:42:17.394Z,101136.81
2018-02-13T08:43:21.616Z,101130.09
2018-02-13T08:44:25.848Z,101136.91
2018-02-13T08:45:31.141Z,101126.47
2018-02-13T08:46:38.156Z,101131.87
2018-02-13T08:47:43.441Z,101129.84
2018-02-13T08:48:47.712Z,101124.82
2018-02-13T08:49:51.926Z,101129.55
2018-02-13T08:50:56.119Z,101129.98
2018-02-13T08:52:01.763Z,101129.20
2018-02-13T08:53:07.563Z,101123.78
2018-02-13T08:54:11.849Z,101122.13
2018-02-13T08:55:16.099Z,101123.04
2018-02-13T08:56:20.305Z,101121.03
2018-02-13T08:57:24.570Z,101124.44
2018-02-13T08:58:28.812Z,101119.95
2018-02-13T08:59:35.255Z,101121.73
2018-02-13T09:00:40.597Z,101122.21
2018-02-13T09:01:45.135Z,101117.75
2018-02-13T09:02:49.418Z,101108.10
2018-02-13T09:03:53.647Z,101115.77
2018-02-13T09:04:57.871Z,101111.97
2018-02-13T09:06:02.401Z,101111.64
2018-02-13T09:07:07.769Z,101109.14
2018-02-13T09:08:12.157Z,101119.30
2018-02-13T09:09:17.329Z,101112.11
2018-02-13T09:10:22.308Z,101114.78
2018-02-13T09:11:26.478Z,101108.57
2018-02-13T09:12:33.731Z,101111.89
2018-02-13T09:13:38.354Z,101111.70
2018-02-13T09:14:43.549Z,101111.81
2018-02-13T09:15:47.839Z,101107.26
2018-02-13T09:16:52.011Z,101112.80
2018-02-13T09:17:56.189Z,101108.97
2018-02-13T09:19:00.431Z,101115.30
2018-02-13T09:20:05.656Z,101114.92
2018-02-13T09:21:10.136Z,101112.66
2018-02-13T09:22:14.680Z,101111.91
2018-02-13T09:23:18.854Z,101108.89
2018-02-13T09:24:23.062Z,101112.80
2018-02-13T09:25:27.273Z,101106.47
2018-02-13T09:26:32.207Z,101108.55
2018-02-13T09:27:38.327Z,101108.07
2018-02-13T09:28:43.799Z,101111.08
2018-02-13T09:29:48.041Z,101109.38
2018-02-13T09:30:52.253Z,101109.00
2018-02-13T09:31:57.164Z,101113.23
2018-02-13T09:33:02.785Z,101111.21
2018-02-13T09:34:07.373Z,101116.30
2018-02-13T09:35:13.179Z,101111.70
2018-02-13T09:36:17.396Z,101110.12
2018-02-13T09:37:22.109Z,101107.58
2018-02-13T09:38:26.321Z,101112.25
2018-02-13T09:39:30.537Z,101107.59
2018-02-13T09:40:36.371Z,101110.19
2018-02-13T09:41:40.884Z,101112.31
2018-02-13T09:42:45.967Z,101107.32
2018-02-13T09:43:50.963Z,101106.08
2018-02-13T09:44:55.215Z,101109.08
2018-02-13T09:45:59.404Z,101105.77
2018-02-13T09:47:04.995Z,101106.23
2018-02-13T09:48:09.337Z,101109.20
2018-02-13T09:49:14.414Z,101110.06
2018-02-13T09:50:19.373Z,101108.82
2018-02-13T09:51:23.568Z,101108.91
2018-02-13T09:52:28.567Z,101111.41
2018-02-13T09:53:36.906Z,101111.84
2018-02-13T09:54:42.580Z,101102.63
2018-02-13T09:55:47.879Z,101108.17
2018-02-13T09:56:52.830Z,101103.54
2018-02-13T09:57:57.440Z,101098.14
2018-02-13T09:59:02.297Z,101102.32
2018-02-13T10:00:09.541Z,101107.45
2018-02-13T10:01:13.957Z,101101.55
2018-02-13T10:02:18.167Z,101106.19
2018-02-13T10:03:23.188Z,101103.71
2018-02-13T10:04:28.159Z,101100.80
2018-02-13T10:05:35.694Z,101094.44
2018-02-13T10:06:41.277Z,101094.45
2018-02-13T10:07:45.483Z,101089.40
2018-02-13T10:08:49.691Z,101095.38
2018-02-13T10:09:53.876Z,101093.78
2018-02-13T10:10:58.087Z,101094.25
2018-02-13T10:12:04.540Z,101095.57
2018-02-13T10:13:09.760Z,101093.05
2018-02-13T10:14:14.742Z,101091.35
2018-02-13T10:15:18.958Z,101085.05
2018-02-13T10:16:23.164Z,101085.05
2018-02-13T10:17:27.399Z,101089.72
2018-02-13T10:18:32.679Z,101081.73
2018-02-13T10:19:39.483Z,101080.08
2018-02-13T10:20:44.610Z,101077.56
2018-02-13T10:21:48.814Z,101084.35
2018-02-13T10:22:52.998Z,101078.03
2018-02-13T10:23:57.188Z,101085.67
2018-02-13T10:25:02.003Z,101080.19
2018-02-13T10:26:06.999Z,101074.71
2018-02-13T10:27:12.066Z,101070.94
2018-02-13T10:28:16.716Z,101071.80
2018-02-13T10:29:20.918Z,101072.23
2018-02-13T10:30:25.164Z,101073.04
2018-02-13T10:31:30.142Z,101069.24
2018-02-13T10:32:38.329Z,101072.64
2018-02-13T10:33:43.076Z,101072.67
2018-02-13T10:34:48.042Z,101068.92
2018-02-13T10:35:53.008Z,101070.20
2018-02-13T10:36:57.211Z,101068.13
2018-02-13T10:38:02.430Z,101065.59
2018-02-13T10:39:07.753Z,101066.03
2018-02-13T10:40:12.943Z,101063.05
2018-02-13T10:41:17.175Z,101072.80
2018-02-13T10:42:21.406Z,101067.69
2018-02-13T10:43:25.599Z,101065.61
2018-02-13T10:44:29.820Z,101063.91
2018-02-13T10:45:35.442Z,101060.09
2018-02-13T10:46:40.217Z,101065.59
2018-02-13T10:47:44.535Z,101060.13
2018-02-13T10:48:48.713Z,101073.23
2018-02-13T10:49:53.691Z,101066.02
2018-02-13T10:50:57.856Z,101066.46
2018-02-13T10:52:03.997Z,101066.88
2018-02-13T10:53:08.705Z,101062.22
2018-02-13T10:54:13.634Z,101057.55
2018-02-13T10:55:18.638Z,101062.19
2018-02-13T10:56:22.830Z,101061.38
2018-02-13T10:57:26.999Z,101061.41
2018-02-13T10:58:33.273Z,101064.81
2018-02-13T10:59:39.119Z,101059.30
2018-02-13T11:00:49.102Z,101059.31
2018-02-13T11:03:33.236Z,101050.03
2018-02-13T11:04:39.587Z,101050.02
2018-02-13T11:05:44.520Z,101049.63
2018-02-13T11:06:49.466Z,101048.77
2018-02-13T11:07:53.638Z,101052.17
2018-02-13T11:08:57.920Z,101048.78
2018-02-13T11:10:02.842Z,101053.05
2018-02-13T11:11:09.176Z,101051.78
2018-02-13T11:12:14.302Z,101053.04
2018-02-13T11:13:18.475Z,101048.78
2018-02-13T11:14:22.655Z,101047.09
2018-02-13T11:15:26.904Z,101042.86
2018-02-13T11:16:33.426Z,101036.94
2018-02-13T11:17:39.084Z,101045.41
2018-02-13T11:18:43.664Z,101044.56
2018-02-13T11:19:47.897Z,101042.88
2018-02-13T11:20:52.506Z,101043.70
2018-02-13T11:21:56.707Z,101042.88
2018-02-13T11:23:00.973Z,101039.47
2018-02-13T11:24:05.641Z,101039.05
2018-02-13T11:25:10.571Z,101039.05
2018-02-13T11:26:15.063Z,101042.88
2018-02-13T11:27:20.411Z,101037.37
2018-02-13T11:28:25.339Z,101037.36
2018-02-13T11:29:30.291Z,101039.05
2018-02-13T11:30:37.266Z,101028.45
2018-02-13T11:31:41.747Z,101033.98
2018-02-13T11:32:46.345Z,101029.73
2018-02-13T11:33:50.527Z,101023.77
2018-02-13T11:34:54.720Z,101026.33
2018-02-13T11:35:58.903Z,101026.74
2018-02-13T11:37:06.404Z,101022.92
2018-02-13T11:38:11.306Z,101022.09
2018-02-13T11:39:16.049Z,101023.78
2018-02-13T11:40:20.991Z,101018.69
2018-02-13T11:41:25.180Z,101020.78
2018-02-13T11:42:30.158Z,101015.29
2018-02-13T11:43:37.196Z,101021.23
2018-02-13T11:44:41.607Z,101021.23
2018-02-13T11:45:46.229Z,101019.08
2018-02-13T11:46:51.183Z,101015.67
2018-02-13T11:47:55.417Z,101022.44
2018-02-13T11:48:59.607Z,101020.70
2018-02-13T11:50:05.663Z,101016.44
2018-02-13T11:51:10.168Z,101022.84
2018-02-13T11:52:15.371Z,101021.56
2018-02-13T11:53:19.560Z,101021.16
2018-02-13T11:54:23.750Z,101018.65
2018-02-13T11:55:27.912Z,101014.40
2018-02-13T11:56:33.793Z,101013.13
2018-02-13T11:57:39.110Z,101015.23
2018-02-13T11:58:43.539Z,101007.63
2018-02-13T11:59:48.186Z,101008.47
2018-02-13T12:00:52.364Z,101015.67
2018-02-13T12:01:56.549Z,101019.45
2018-02-13T12:03:01.600Z,100999.56
2018-02-13T12:04:06.921Z,101011.86
2018-02-13T12:05:12.450Z,101011.86
2018-02-13T12:06:16.826Z,101003.79
2018-02-13T12:07:21.518Z,101008.84
2018-02-13T12:08:25.696Z,101014.34
2018-02-13T12:09:30.659Z,101013.46
2018-02-13T12:10:38.024Z,101007.13
2018-02-13T12:11:42.860Z,101013.89
2018-02-13T12:12:47.190Z,101008.81
2018-02-13T12:13:52.259Z,101007.97
2018-02-13T12:14:56.451Z,101010.88
2018-02-13T12:16:00.705Z,100999.86
2018-02-13T12:17:06.008Z,100994.77
2018-02-13T12:18:10.455Z,100996.87
2018-02-13T12:19:15.612Z,101004.08
2018-02-13T12:20:19.861Z,101004.91
2018-02-13T12:21:24.050Z,101002.36
2018-02-13T12:22:28.317Z,100998.01
2018-02-13T12:23:34.105Z,100998.88